sensor_id;sensor_type;location;lat;lon;timestamp;P1;durP1;ratioP1;P2;durP2;ratioP2
65613;SDS011;52283;49.292;10.572;2023-01-24T00:00:52;29.70;;;11.93;;
65613;SDS011;52283;49.292;10.572;2023-01-24T00:03:19;30.58;;;13.68;;
65613;SDS011;52283;49.292;10.572;2023-01-24T00:05:46;29.08;;;11.80;;
65613;SDS011;52283;49.292;10.572;2023-01-24T00:08:14;23.45;;;11.70;;
65613;SDS011;52283;49.292;10.572;2023-01-24T00:10:43;30.88;;;11.90;;
65613;SDS011;52283;49.292;10.572;2023-01-24T00:13:10;29.35;;;12.52;;
65613;SDS011;52283;49.292;10.572;2023-01-24T00:15:38;27.88;;;11.43;;
65613;SDS011;52283;49.292;10.572;2023-01-24T00:18:07;25.85;;;10.88;;
65613;SDS011;52283;49.292;10.572;2023-01-24T00:20:33;35.88;;;14.13;;
65613;SDS011;52283;49.292;10.572;2023-01-24T00:23:00;27.63;;;12.93;;
65613;SDS011;52283;49.292;10.572;2023-01-24T00:25:26;27.50;;;12.15;;
65613;SDS011;52283;49.292;10.572;2023-01-24T00:27:53;29.40;;;12.65;;
65613;SDS011;52283;49.292;10.572;2023-01-24T00:30:19;30.30;;;12.95;;
65613;SDS011;52283;49.292;10.572;2023-01-24T00:32:46;30.08;;;12.55;;
65613;SDS011;52283;49.292;10.572;2023-01-24T00:35:14;27.77;;;13.98;;
65613;SDS011;52283;49.292;10.572;2023-01-24T00:37:40;28.92;;;12.90;;
65613;SDS011;52283;49.292;10.572;2023-01-24T00:40:07;27.70;;;12.18;;
65613;SDS011;52283;49.292;10.572;2023-01-24T00:42:35;27.88;;;11.55;;
65613;SDS011;52283;49.292;10.572;2023-01-24T00:45:01;28.23;;;12.38;;
65613;SDS011;52283;49.292;10.572;2023-01-24T00:47:28;32.88;;;13.20;;
65613;SDS011;52283;49.292;10.572;2023-01-24T00:49:54;31.25;;;11.80;;
65613;SDS011;52283;49.292;10.572;2023-01-24T00:52:22;27.83;;;11.73;;
65613;SDS011;52283;49.292;10.572;2023-01-24T00:54:48;31.02;;;12.25;;
65613;SDS011;52283;49.292;10.572;2023-01-24T00:57:15;27.08;;;11.18;;
65613;SDS011;52283;49.292;10.572;2023-01-24T00:59:41;27.23;;;12.25;;
65613;SDS011;52283;49.292;10.572;2023-01-24T01:02:08;27.88;;;12.23;;
65613;SDS011;52283;49.292;10.572;2023-01-24T01:04:34;25.08;;;11.05;;
65613;SDS011;52283;49.292;10.572;2023-01-24T01:07:00;25.48;;;11.43;;
65613;SDS011;52283;49.292;10.572;2023-01-24T01:09:28;28.15;;;11.15;;
65613;SDS011;52283;49.292;10.572;2023-01-24T01:11:55;26.45;;;11.10;;
65613;SDS011;52283;49.292;10.572;2023-01-24T01:14:21;29.48;;;11.68;;
65613;SDS011;52283;49.292;10.572;2023-01-24T01:16:48;29.35;;;13.02;;
65613;SDS011;52283;49.292;10.572;2023-01-24T01:19:14;26.75;;;11.60;;
65613;SDS011;52283;49.292;10.572;2023-01-24T01:21:40;30.60;;;12.57;;
65613;SDS011;52283;49.292;10.572;2023-01-24T01:24:09;23.48;;;10.85;;
65613;SDS011;52283;49.292;10.572;2023-01-24T01:26:37;29.35;;;12.27;;
65613;SDS011;52283;49.292;10.572;2023-01-24T01:29:03;25.58;;;12.45;;
65613;SDS011;52283;49.292;10.572;2023-01-24T01:31:30;27.35;;;11.45;;
65613;SDS011;52283;49.292;10.572;2023-01-24T01:33:56;27.95;;;12.75;;
65613;SDS011;52283;49.292;10.572;2023-01-24T01:36:23;29.20;;;12.77;;
65613;SDS011;52283;49.292;10.572;2023-01-24T01:38:49;26.40;;;11.13;;
65613;SDS011;52283;49.292;10.572;2023-01-24T01:41:16;29.60;;;12.23;;
65613;SDS011;52283;49.292;10.572;2023-01-24T01:43:43;26.50;;;11.70;;
65613;SDS011;52283;49.292;10.572;2023-01-24T01:46:24;26.48;;;12.13;;
65613;SDS011;52283;49.292;10.572;2023-01-24T01:48:53;24.48;;;11.05;;
65613;SDS011;52283;49.292;10.572;2023-01-24T01:51:24;28.30;;;11.57;;
65613;SDS011;52283;49.292;10.572;2023-01-24T01:53:54;28.63;;;12.07;;
65613;SDS011;52283;49.292;10.572;2023-01-24T01:56:25;24.55;;;10.85;;
65613;SDS011;52283;49.292;10.572;2023-01-24T01:58:56;30.67;;;11.40;;
65613;SDS011;52283;49.292;10.572;2023-01-24T02:01:26;29.92;;;12.60;;
65613;SDS011;52283;49.292;10.572;2023-01-24T02:03:54;31.25;;;12.48;;
65613;SDS011;52283;49.292;10.572;2023-01-24T02:06:29;27.42;;;11.82;;
65613;SDS011;52283;49.292;10.572;2023-01-24T02:09:09;30.98;;;12.77;;
65613;SDS011;52283;49.292;10.572;2023-01-24T02:11:38;30.30;;;11.68;;
65613;SDS011;52283;49.292;10.572;2023-01-24T02:14:08;27.55;;;11.45;;
65613;SDS011;52283;49.292;10.572;2023-01-24T02:16:54;30.75;;;10.77;;
65613;SDS011;52283;49.292;10.572;2023-01-24T02:22:28;28.05;;;10.82;;
65613;SDS011;52283;49.292;10.572;2023-01-24T02:25:04;28.80;;;13.27;;
65613;SDS011;52283;49.292;10.572;2023-01-24T02:27:39;29.65;;;12.93;;
65613;SDS011;52283;49.292;10.572;2023-01-24T02:30:06;31.48;;;13.98;;
65613;SDS011;52283;49.292;10.572;2023-01-24T02:32:34;31.38;;;13.05;;
65613;SDS011;52283;49.292;10.572;2023-01-24T02:35:00;28.25;;;11.48;;
65613;SDS011;52283;49.292;10.572;2023-01-24T02:37:27;33.45;;;12.70;;
65613;SDS011;52283;49.292;10.572;2023-01-24T02:39:54;27.88;;;13.25;;
65613;SDS011;52283;49.292;10.572;2023-01-24T02:42:24;27.88;;;13.13;;
65613;SDS011;52283;49.292;10.572;2023-01-24T02:44:57;24.58;;;11.48;;
65613;SDS011;52283;49.292;10.572;2023-01-24T02:48:05;29.38;;;12.18;;
65613;SDS011;52283;49.292;10.572;2023-01-24T02:50:32;31.55;;;13.65;;
65613;SDS011;52283;49.292;10.572;2023-01-24T02:53:19;29.52;;;12.45;;
65613;SDS011;52283;49.292;10.572;2023-01-24T02:55:57;32.88;;;12.77;;
65613;SDS011;52283;49.292;10.572;2023-01-24T02:58:41;27.23;;;13.27;;
65613;SDS011;52283;49.292;10.572;2023-01-24T03:01:10;31.90;;;12.13;;
65613;SDS011;52283;49.292;10.572;2023-01-24T03:03:37;29.00;;;12.73;;
65613;SDS011;52283;49.292;10.572;2023-01-24T03:06:04;28.83;;;13.13;;
65613;SDS011;52283;49.292;10.572;2023-01-24T03:08:31;31.48;;;12.60;;
65613;SDS011;52283;49.292;10.572;2023-01-24T03:10:59;33.20;;;14.48;;
65613;SDS011;52283;49.292;10.572;2023-01-24T03:13:25;36.63;;;14.43;;
65613;SDS011;52283;49.292;10.572;2023-01-24T03:16:11;31.02;;;13.80;;
65613;SDS011;52283;49.292;10.572;2023-01-24T03:18:55;33.72;;;14.18;;
65613;SDS011;52283;49.292;10.572;2023-01-24T03:21:39;28.35;;;12.98;;
65613;SDS011;52283;49.292;10.572;2023-01-24T03:24:24;30.70;;;13.93;;
65613;SDS011;52283;49.292;10.572;2023-01-24T03:27:08;32.55;;;12.65;;
65613;SDS011;52283;49.292;10.572;2023-01-24T03:29:53;30.38;;;13.27;;
65613;SDS011;52283;49.292;10.572;2023-01-24T03:32:38;30.95;;;12.75;;
65613;SDS011;52283;49.292;10.572;2023-01-24T03:35:23;28.67;;;13.23;;
65613;SDS011;52283;49.292;10.572;2023-01-24T03:37:49;25.42;;;11.93;;
65613;SDS011;52283;49.292;10.572;2023-01-24T03:40:34;30.55;;;12.45;;
65613;SDS011;52283;49.292;10.572;2023-01-24T03:43:01;33.28;;;12.63;;
65613;SDS011;52283;49.292;10.572;2023-01-24T03:45:29;28.35;;;11.32;;
65613;SDS011;52283;49.292;10.572;2023-01-24T03:47:59;27.30;;;12.70;;
65613;SDS011;52283;49.292;10.572;2023-01-24T03:50:27;26.67;;;11.02;;
65613;SDS011;52283;49.292;10.572;2023-01-24T03:53:13;26.73;;;12.32;;
65613;SDS011;52283;49.292;10.572;2023-01-24T03:55:41;23.95;;;10.55;;
65613;SDS011;52283;49.292;10.572;2023-01-24T03:58:08;28.50;;;12.27;;
65613;SDS011;52283;49.292;10.572;2023-01-24T04:00:36;24.63;;;10.88;;
65613;SDS011;52283;49.292;10.572;2023-01-24T04:03:04;21.60;;;11.40;;
65613;SDS011;52283;49.292;10.572;2023-01-24T04:05:31;24.58;;;10.70;;
65613;SDS011;52283;49.292;10.572;2023-01-24T04:07:58;26.85;;;11.73;;
65613;SDS011;52283;49.292;10.572;2023-01-24T04:10:25;19.88;;;9.07;;
65613;SDS011;52283;49.292;10.572;2023-01-24T04:12:51;22.67;;;10.23;;
65613;SDS011;52283;49.292;10.572;2023-01-24T04:15:20;20.40;;;10.43;;
65613;SDS011;52283;49.292;10.572;2023-01-24T04:17:48;24.67;;;11.32;;
65613;SDS011;52283;49.292;10.572;2023-01-24T04:20:16;24.13;;;10.60;;
65613;SDS011;52283;49.292;10.572;2023-01-24T04:22:43;27.02;;;10.75;;
65613;SDS011;52283;49.292;10.572;2023-01-24T04:25:09;19.70;;;9.00;;
65613;SDS011;52283;49.292;10.572;2023-01-24T04:27:36;23.15;;;9.80;;
65613;SDS011;52283;49.292;10.572;2023-01-24T04:30:03;22.98;;;10.52;;
65613;SDS011;52283;49.292;10.572;2023-01-24T04:32:30;18.60;;;9.05;;
65613;SDS011;52283;49.292;10.572;2023-01-24T04:34:57;23.70;;;10.57;;
65613;SDS011;52283;49.292;10.572;2023-01-24T04:37:25;20.42;;;9.48;;
65613;SDS011;52283;49.292;10.572;2023-01-24T04:39:51;19.52;;;10.55;;
65613;SDS011;52283;49.292;10.572;2023-01-24T04:42:18;20.75;;;9.15;;
65613;SDS011;52283;49.292;10.572;2023-01-24T04:44:44;19.52;;;9.07;;
65613;SDS011;52283;49.292;10.572;2023-01-24T04:47:10;17.58;;;9.07;;
65613;SDS011;52283;49.292;10.572;2023-01-24T04:49:37;19.17;;;9.35;;
65613;SDS011;52283;49.292;10.572;2023-01-24T04:52:04;18.17;;;8.63;;
65613;SDS011;52283;49.292;10.572;2023-01-24T04:54:31;19.25;;;8.45;;
65613;SDS011;52283;49.292;10.572;2023-01-24T04:56:58;16.17;;;8.07;;
65613;SDS011;52283;49.292;10.572;2023-01-24T04:59:24;16.70;;;8.85;;
65613;SDS011;52283;49.292;10.572;2023-01-24T05:01:51;15.48;;;8.27;;
65613;SDS011;52283;49.292;10.572;2023-01-24T05:04:17;18.10;;;8.63;;
65613;SDS011;52283;49.292;10.572;2023-01-24T05:06:44;16.08;;;8.27;;
65613;SDS011;52283;49.292;10.572;2023-01-24T05:09:10;18.63;;;8.75;;
65613;SDS011;52283;49.292;10.572;2023-01-24T05:11:38;14.50;;;7.82;;
65613;SDS011;52283;49.292;10.572;2023-01-24T05:14:04;15.35;;;7.82;;
65613;SDS011;52283;49.292;10.572;2023-01-24T05:16:33;17.65;;;7.88;;
65613;SDS011;52283;49.292;10.572;2023-01-24T05:19:00;15.45;;;8.32;;
65613;SDS011;52283;49.292;10.572;2023-01-24T05:21:26;18.08;;;8.23;;
65613;SDS011;52283;49.292;10.572;2023-01-24T05:23:53;18.23;;;8.20;;
65613;SDS011;52283;49.292;10.572;2023-01-24T05:26:19;19.90;;;8.23;;
65613;SDS011;52283;49.292;10.572;2023-01-24T05:28:48;15.70;;;8.13;;
65613;SDS011;52283;49.292;10.572;2023-01-24T05:31:16;15.23;;;7.20;;
65613;SDS011;52283;49.292;10.572;2023-01-24T05:33:43;19.58;;;7.47;;
65613;SDS011;52283;49.292;10.572;2023-01-24T05:36:10;20.38;;;8.27;;
65613;SDS011;52283;49.292;10.572;2023-01-24T05:38:38;17.02;;;8.65;;
65613;SDS011;52283;49.292;10.572;2023-01-24T05:41:05;16.48;;;8.45;;
65613;SDS011;52283;49.292;10.572;2023-01-24T05:43:33;18.75;;;9.15;;
65613;SDS011;52283;49.292;10.572;2023-01-24T05:46:02;17.25;;;7.80;;
65613;SDS011;52283;49.292;10.572;2023-01-24T05:48:30;17.50;;;8.38;;
65613;SDS011;52283;49.292;10.572;2023-01-24T05:50:57;17.75;;;7.63;;
65613;SDS011;52283;49.292;10.572;2023-01-24T05:53:24;15.15;;;7.13;;
65613;SDS011;52283;49.292;10.572;2023-01-24T05:55:55;15.18;;;8.10;;
65613;SDS011;52283;49.292;10.572;2023-01-24T05:58:22;14.80;;;8.60;;
65613;SDS011;52283;49.292;10.572;2023-01-24T06:00:49;19.25;;;9.07;;
65613;SDS011;52283;49.292;10.572;2023-01-24T06:03:17;20.10;;;9.02;;
65613;SDS011;52283;49.292;10.572;2023-01-24T06:05:44;17.15;;;8.65;;
65613;SDS011;52283;49.292;10.572;2023-01-24T06:08:12;16.45;;;8.57;;
65613;SDS011;52283;49.292;10.572;2023-01-24T06:10:38;16.80;;;8.77;;
65613;SDS011;52283;49.292;10.572;2023-01-24T06:13:05;18.05;;;9.45;;
65613;SDS011;52283;49.292;10.572;2023-01-24T06:15:31;18.10;;;8.60;;
65613;SDS011;52283;49.292;10.572;2023-01-24T06:17:58;17.30;;;7.78;;
65613;SDS011;52283;49.292;10.572;2023-01-24T06:20:26;13.93;;;8.10;;
65613;SDS011;52283;49.292;10.572;2023-01-24T06:22:53;15.73;;;8.32;;
65613;SDS011;52283;49.292;10.572;2023-01-24T06:25:23;17.10;;;8.82;;
65613;SDS011;52283;49.292;10.572;2023-01-24T06:27:51;13.27;;;7.43;;
65613;SDS011;52283;49.292;10.572;2023-01-24T06:30:18;16.95;;;8.55;;
65613;SDS011;52283;49.292;10.572;2023-01-24T06:32:50;17.33;;;7.88;;
65613;SDS011;52283;49.292;10.572;2023-01-24T06:35:31;19.27;;;8.90;;
65613;SDS011;52283;49.292;10.572;2023-01-24T06:38:02;16.67;;;7.90;;
65613;SDS011;52283;49.292;10.572;2023-01-24T06:40:29;17.60;;;8.27;;
65613;SDS011;52283;49.292;10.572;2023-01-24T06:42:56;14.68;;;7.57;;
65613;SDS011;52283;49.292;10.572;2023-01-24T06:45:23;16.23;;;7.68;;
65613;SDS011;52283;49.292;10.572;2023-01-24T06:47:49;15.63;;;8.05;;
65613;SDS011;52283;49.292;10.572;2023-01-24T06:50:16;12.38;;;6.93;;
65613;SDS011;52283;49.292;10.572;2023-01-24T06:52:46;17.25;;;8.50;;
65613;SDS011;52283;49.292;10.572;2023-01-24T06:55:13;18.15;;;8.00;;
65613;SDS011;52283;49.292;10.572;2023-01-24T06:57:40;17.45;;;8.50;;
65613;SDS011;52283;49.292;10.572;2023-01-24T07:00:07;14.32;;;7.03;;
65613;SDS011;52283;49.292;10.572;2023-01-24T07:02:35;17.63;;;9.50;;
65613;SDS011;52283;49.292;10.572;2023-01-24T07:05:01;15.95;;;7.95;;
65613;SDS011;52283;49.292;10.572;2023-01-24T07:07:28;14.88;;;7.72;;
65613;SDS011;52283;49.292;10.572;2023-01-24T07:09:55;18.75;;;7.82;;
65613;SDS011;52283;49.292;10.572;2023-01-24T07:12:22;14.85;;;7.85;;
65613;SDS011;52283;49.292;10.572;2023-01-24T07:14:48;13.98;;;6.78;;
65613;SDS011;52283;49.292;10.572;2023-01-24T07:17:15;17.00;;;7.60;;
65613;SDS011;52283;49.292;10.572;2023-01-24T07:19:42;13.85;;;7.00;;
65613;SDS011;52283;49.292;10.572;2023-01-24T07:22:09;15.55;;;7.50;;
65613;SDS011;52283;49.292;10.572;2023-01-24T07:24:37;16.10;;;6.75;;
65613;SDS011;52283;49.292;10.572;2023-01-24T07:27:06;14.65;;;6.30;;
65613;SDS011;52283;49.292;10.572;2023-01-24T07:29:33;13.45;;;6.35;;
65613;SDS011;52283;49.292;10.572;2023-01-24T07:31:59;13.63;;;6.50;;
65613;SDS011;52283;49.292;10.572;2023-01-24T07:34:26;12.38;;;6.40;;
65613;SDS011;52283;49.292;10.572;2023-01-24T07:36:52;13.32;;;7.00;;
65613;SDS011;52283;49.292;10.572;2023-01-24T07:39:19;13.57;;;7.28;;
65613;SDS011;52283;49.292;10.572;2023-01-24T07:41:45;12.10;;;6.00;;
65613;SDS011;52283;49.292;10.572;2023-01-24T07:44:13;10.48;;;5.68;;
65613;SDS011;52283;49.292;10.572;2023-01-24T07:46:39;12.10;;;6.88;;
65613;SDS011;52283;49.292;10.572;2023-01-24T07:49:06;14.55;;;6.35;;
65613;SDS011;52283;49.292;10.572;2023-01-24T07:51:33;13.52;;;6.38;;
65613;SDS011;52283;49.292;10.572;2023-01-24T07:53:59;12.93;;;6.40;;
65613;SDS011;52283;49.292;10.572;2023-01-24T07:56:26;13.02;;;6.00;;
65613;SDS011;52283;49.292;10.572;2023-01-24T07:58:52;12.20;;;5.82;;
65613;SDS011;52283;49.292;10.572;2023-01-24T08:01:22;12.00;;;6.22;;
65613;SDS011;52283;49.292;10.572;2023-01-24T08:03:49;11.98;;;6.75;;
65613;SDS011;52283;49.292;10.572;2023-01-24T08:06:16;12.82;;;6.10;;
65613;SDS011;52283;49.292;10.572;2023-01-24T08:08:43;12.63;;;6.07;;
65613;SDS011;52283;49.292;10.572;2023-01-24T08:11:09;11.13;;;5.53;;
65613;SDS011;52283;49.292;10.572;2023-01-24T08:13:40;10.18;;;5.25;;
65613;SDS011;52283;49.292;10.572;2023-01-24T08:16:07;10.95;;;6.40;;
65613;SDS011;52283;49.292;10.572;2023-01-24T08:18:35;10.57;;;5.07;;
65613;SDS011;52283;49.292;10.572;2023-01-24T08:21:02;11.55;;;5.10;;
65613;SDS011;52283;49.292;10.572;2023-01-24T08:23:29;13.02;;;6.18;;
65613;SDS011;52283;49.292;10.572;2023-01-24T08:25:56;12.35;;;6.15;;
65613;SDS011;52283;49.292;10.572;2023-01-24T08:28:23;7.90;;;5.47;;
65613;SDS011;52283;49.292;10.572;2023-01-24T08:30:49;12.02;;;7.22;;
65613;SDS011;52283;49.292;10.572;2023-01-24T08:33:15;13.18;;;6.15;;
65613;SDS011;52283;49.292;10.572;2023-01-24T08:35:45;15.55;;;6.55;;
65613;SDS011;52283;49.292;10.572;2023-01-24T08:38:12;12.90;;;6.80;;
65613;SDS011;52283;49.292;10.572;2023-01-24T08:40:39;10.75;;;5.50;;
65613;SDS011;52283;49.292;10.572;2023-01-24T08:43:06;12.75;;;5.70;;
65613;SDS011;52283;49.292;10.572;2023-01-24T08:45:33;8.35;;;5.05;;
65613;SDS011;52283;49.292;10.572;2023-01-24T08:47:59;9.52;;;5.15;;
65613;SDS011;52283;49.292;10.572;2023-01-24T08:50:27;13.68;;;6.55;;
65613;SDS011;52283;49.292;10.572;2023-01-24T08:52:55;7.60;;;4.88;;
65613;SDS011;52283;49.292;10.572;2023-01-24T08:55:22;11.27;;;4.55;;
65613;SDS011;52283;49.292;10.572;2023-01-24T08:57:48;11.43;;;5.10;;
65613;SDS011;52283;49.292;10.572;2023-01-24T09:00:15;12.07;;;5.35;;
65613;SDS011;52283;49.292;10.572;2023-01-24T09:02:42;12.10;;;5.28;;
65613;SDS011;52283;49.292;10.572;2023-01-24T09:05:09;12.48;;;6.00;;
65613;SDS011;52283;49.292;10.572;2023-01-24T09:07:35;10.57;;;5.47;;
65613;SDS011;52283;49.292;10.572;2023-01-24T09:10:03;11.30;;;5.05;;
65613;SDS011;52283;49.292;10.572;2023-01-24T09:12:30;12.77;;;5.07;;
65613;SDS011;52283;49.292;10.572;2023-01-24T09:14:57;9.85;;;5.28;;
65613;SDS011;52283;49.292;10.572;2023-01-24T09:17:24;8.88;;;5.28;;
65613;SDS011;52283;49.292;10.572;2023-01-24T09:19:51;10.70;;;5.78;;
65613;SDS011;52283;49.292;10.572;2023-01-24T09:22:17;11.05;;;6.20;;
65613;SDS011;52283;49.292;10.572;2023-01-24T09:24:44;9.88;;;5.35;;
65613;SDS011;52283;49.292;10.572;2023-01-24T09:27:11;9.90;;;4.28;;
65613;SDS011;52283;49.292;10.572;2023-01-24T09:29:38;11.52;;;5.47;;
65613;SDS011;52283;49.292;10.572;2023-01-24T09:32:04;8.68;;;5.03;;
65613;SDS011;52283;49.292;10.572;2023-01-24T09:34:31;10.45;;;5.97;;
65613;SDS011;52283;49.292;10.572;2023-01-24T09:36:58;12.65;;;5.72;;
65613;SDS011;52283;49.292;10.572;2023-01-24T09:39:24;12.77;;;5.43;;
65613;SDS011;52283;49.292;10.572;2023-01-24T09:41:54;9.13;;;5.07;;
65613;SDS011;52283;49.292;10.572;2023-01-24T09:44:34;12.13;;;6.05;;
65613;SDS011;52283;49.292;10.572;2023-01-24T09:47:09;8.73;;;5.22;;
65613;SDS011;52283;49.292;10.572;2023-01-24T09:49:44;11.57;;;5.95;;
65613;SDS011;52283;49.292;10.572;2023-01-24T09:52:17;12.02;;;5.82;;
65613;SDS011;52283;49.292;10.572;2023-01-24T09:54:51;12.70;;;6.32;;
65613;SDS011;52283;49.292;10.572;2023-01-24T09:57:24;13.63;;;5.93;;
65613;SDS011;52283;49.292;10.572;2023-01-24T09:59:55;10.45;;;5.80;;
65613;SDS011;52283;49.292;10.572;2023-01-24T10:02:27;13.52;;;6.38;;
65613;SDS011;52283;49.292;10.572;2023-01-24T10:04:55;13.05;;;5.88;;
65613;SDS011;52283;49.292;10.572;2023-01-24T10:07:45;10.63;;;6.13;;
65613;SDS011;52283;49.292;10.572;2023-01-24T10:10:29;10.48;;;5.13;;
65613;SDS011;52283;49.292;10.572;2023-01-24T10:13:27;12.00;;;6.60;;
65613;SDS011;52283;49.292;10.572;2023-01-24T10:16:21;10.57;;;5.07;;
65613;SDS011;52283;49.292;10.572;2023-01-24T10:19:04;10.70;;;5.60;;
65613;SDS011;52283;49.292;10.572;2023-01-24T10:21:48;10.57;;;5.65;;
65613;SDS011;52283;49.292;10.572;2023-01-24T10:24:29;9.40;;;6.07;;
65613;SDS011;52283;49.292;10.572;2023-01-24T10:26:58;11.27;;;6.85;;
65613;SDS011;52283;49.292;10.572;2023-01-24T10:29:27;13.43;;;7.03;;
65613;SDS011;52283;49.292;10.572;2023-01-24T10:31:58;10.10;;;6.57;;
65613;SDS011;52283;49.292;10.572;2023-01-24T10:34:30;13.63;;;6.72;;
65613;SDS011;52283;49.292;10.572;2023-01-24T10:37:00;13.35;;;6.45;;
65613;SDS011;52283;49.292;10.572;2023-01-24T10:39:31;11.63;;;6.28;;
65613;SDS011;52283;49.292;10.572;2023-01-24T10:41:58;10.23;;;5.60;;
65613;SDS011;52283;49.292;10.572;2023-01-24T10:44:25;10.05;;;6.10;;
65613;SDS011;52283;49.292;10.572;2023-01-24T10:50:04;10.55;;;5.90;;
65613;SDS011;52283;49.292;10.572;2023-01-24T10:52:32;12.20;;;7.18;;
65613;SDS011;52283;49.292;10.572;2023-01-24T10:54:59;13.57;;;7.32;;
65613;SDS011;52283;49.292;10.572;2023-01-24T10:57:32;12.57;;;7.10;;
65613;SDS011;52283;49.292;10.572;2023-01-24T11:00:03;16.85;;;6.63;;
65613;SDS011;52283;49.292;10.572;2023-01-24T11:02:48;12.00;;;6.13;;
65613;SDS011;52283;49.292;10.572;2023-01-24T11:05:16;11.57;;;6.50;;
65613;SDS011;52283;49.292;10.572;2023-01-24T11:07:45;11.27;;;7.20;;
65613;SDS011;52283;49.292;10.572;2023-01-24T11:10:21;14.57;;;7.03;;
65613;SDS011;52283;49.292;10.572;2023-01-24T11:12:52;20.73;;;8.40;;
65613;SDS011;52283;49.292;10.572;2023-01-24T11:15:21;11.93;;;6.93;;
65613;SDS011;52283;49.292;10.572;2023-01-24T11:17:54;13.47;;;7.13;;
65613;SDS011;52283;49.292;10.572;2023-01-24T11:20:25;13.90;;;7.20;;
65613;SDS011;52283;49.292;10.572;2023-01-24T11:23:01;13.95;;;6.95;;
65613;SDS011;52283;49.292;10.572;2023-01-24T11:25:29;11.18;;;5.70;;
65613;SDS011;52283;49.292;10.572;2023-01-24T11:27:56;12.45;;;6.90;;
65613;SDS011;52283;49.292;10.572;2023-01-24T11:30:24;16.40;;;8.07;;
65613;SDS011;52283;49.292;10.572;2023-01-24T11:32:55;15.27;;;8.00;;
65613;SDS011;52283;49.292;10.572;2023-01-24T11:35:32;17.00;;;8.80;;
65613;SDS011;52283;49.292;10.572;2023-01-24T11:40:52;15.80;;;8.15;;
65613;SDS011;52283;49.292;10.572;2023-01-24T11:43:34;14.80;;;7.82;;
65613;SDS011;52283;49.292;10.572;2023-01-24T11:46:24;14.85;;;7.95;;
65613;SDS011;52283;49.292;10.572;2023-01-24T11:49:09;16.45;;;7.97;;
65613;SDS011;52283;49.292;10.572;2023-01-24T11:51:49;13.70;;;7.57;;
65613;SDS011;52283;49.292;10.572;2023-01-24T11:57:14;15.02;;;8.85;;
65613;SDS011;52283;49.292;10.572;2023-01-24T11:59:53;15.95;;;8.23;;
65613;SDS011;52283;49.292;10.572;2023-01-24T12:02:32;13.80;;;7.47;;
65613;SDS011;52283;49.292;10.572;2023-01-24T12:05:30;15.70;;;8.32;;
65613;SDS011;52283;49.292;10.572;2023-01-24T12:08:15;15.82;;;8.20;;
65613;SDS011;52283;49.292;10.572;2023-01-24T12:10:53;14.45;;;7.38;;
65613;SDS011;52283;49.292;10.572;2023-01-24T12:13:28;16.02;;;8.98;;
65613;SDS011;52283;49.292;10.572;2023-01-24T12:16:04;14.65;;;7.45;;
65613;SDS011;52283;49.292;10.572;2023-01-24T12:18:50;13.68;;;7.57;;
65613;SDS011;52283;49.292;10.572;2023-01-24T12:21:29;13.90;;;7.40;;
65613;SDS011;52283;49.292;10.572;2023-01-24T12:23:56;16.23;;;9.40;;
65613;SDS011;52283;49.292;10.572;2023-01-24T12:26:27;19.20;;;9.35;;
65613;SDS011;52283;49.292;10.572;2023-01-24T12:28:59;15.32;;;8.65;;
65613;SDS011;52283;49.292;10.572;2023-01-24T12:31:32;12.48;;;7.05;;
65613;SDS011;52283;49.292;10.572;2023-01-24T12:34:09;16.20;;;8.27;;
65613;SDS011;52283;49.292;10.572;2023-01-24T12:36:54;13.63;;;7.93;;
65613;SDS011;52283;49.292;10.572;2023-01-24T12:39:26;15.23;;;8.10;;
65613;SDS011;52283;49.292;10.572;2023-01-24T12:42:01;15.45;;;7.55;;
65613;SDS011;52283;49.292;10.572;2023-01-24T12:44:34;26.60;;;11.35;;
65613;SDS011;52283;49.292;10.572;2023-01-24T12:47:22;19.10;;;9.07;;
65613;SDS011;52283;49.292;10.572;2023-01-24T12:50:01;18.10;;;9.30;;
65613;SDS011;52283;49.292;10.572;2023-01-24T12:52:39;17.40;;;8.35;;
65613;SDS011;52283;49.292;10.572;2023-01-24T12:55:13;22.80;;;9.63;;
65613;SDS011;52283;49.292;10.572;2023-01-24T12:57:43;20.17;;;9.32;;
65613;SDS011;52283;49.292;10.572;2023-01-24T13:00:15;17.23;;;9.40;;
65613;SDS011;52283;49.292;10.572;2023-01-24T13:02:45;19.15;;;9.13;;
65613;SDS011;52283;49.292;10.572;2023-01-24T13:05:37;20.80;;;10.55;;
65613;SDS011;52283;49.292;10.572;2023-01-24T13:08:17;15.15;;;7.55;;
65613;SDS011;52283;49.292;10.572;2023-01-24T13:10:54;18.73;;;9.32;;
65613;SDS011;52283;49.292;10.572;2023-01-24T13:13:32;16.00;;;8.57;;
65613;SDS011;52283;49.292;10.572;2023-01-24T13:16:10;18.73;;;10.20;;
65613;SDS011;52283;49.292;10.572;2023-01-24T13:18:55;21.85;;;8.48;;
65613;SDS011;52283;49.292;10.572;2023-01-24T13:21:29;17.75;;;8.82;;
65613;SDS011;52283;49.292;10.572;2023-01-24T13:24:15;19.27;;;9.18;;
65613;SDS011;52283;49.292;10.572;2023-01-24T13:27:02;23.33;;;12.20;;
65613;SDS011;52283;49.292;10.572;2023-01-24T13:29:43;19.63;;;10.65;;
65613;SDS011;52283;49.292;10.572;2023-01-24T13:32:22;23.55;;;10.57;;
65613;SDS011;52283;49.292;10.572;2023-01-24T13:34:51;25.45;;;16.20;;
65613;SDS011;52283;49.292;10.572;2023-01-24T13:37:20;23.98;;;12.32;;
65613;SDS011;52283;49.292;10.572;2023-01-24T13:39:59;24.92;;;11.27;;
65613;SDS011;52283;49.292;10.572;2023-01-24T13:42:31;19.02;;;12.45;;
65613;SDS011;52283;49.292;10.572;2023-01-24T13:48:16;23.92;;;11.38;;
65613;SDS011;52283;49.292;10.572;2023-01-24T13:54:17;24.50;;;10.63;;
65613;SDS011;52283;49.292;10.572;2023-01-24T13:59:43;20.40;;;10.50;;
65613;SDS011;52283;49.292;10.572;2023-01-24T14:02:27;24.52;;;10.20;;
65613;SDS011;52283;49.292;10.572;2023-01-24T14:04:56;21.25;;;9.93;;
65613;SDS011;52283;49.292;10.572;2023-01-24T14:07:26;24.92;;;10.98;;
65613;SDS011;52283;49.292;10.572;2023-01-24T14:09:57;21.95;;;10.75;;
65613;SDS011;52283;49.292;10.572;2023-01-24T14:12:26;24.90;;;11.02;;
65613;SDS011;52283;49.292;10.572;2023-01-24T14:14:58;19.38;;;10.73;;
65613;SDS011;52283;49.292;10.572;2023-01-24T14:17:48;23.50;;;10.45;;
65613;SDS011;52283;49.292;10.572;2023-01-24T14:20:19;26.13;;;10.07;;
65613;SDS011;52283;49.292;10.572;2023-01-24T14:22:50;23.55;;;10.93;;
65613;SDS011;52283;49.292;10.572;2023-01-24T14:25:25;20.42;;;9.65;;
65613;SDS011;52283;49.292;10.572;2023-01-24T14:28:02;25.13;;;11.15;;
65613;SDS011;52283;49.292;10.572;2023-01-24T14:30:38;20.75;;;9.90;;
65613;SDS011;52283;49.292;10.572;2023-01-24T14:33:15;24.08;;;10.45;;
65613;SDS011;52283;49.292;10.572;2023-01-24T14:35:56;18.55;;;9.35;;
65613;SDS011;52283;49.292;10.572;2023-01-24T14:38:26;25.08;;;11.55;;
65613;SDS011;52283;49.292;10.572;2023-01-24T14:40:53;26.58;;;10.18;;
65613;SDS011;52283;49.292;10.572;2023-01-24T14:43:23;21.02;;;10.18;;
65613;SDS011;52283;49.292;10.572;2023-01-24T14:45:50;19.15;;;10.18;;
65613;SDS011;52283;49.292;10.572;2023-01-24T14:48:19;20.45;;;9.75;;
65613;SDS011;52283;49.292;10.572;2023-01-24T14:50:55;20.13;;;9.73;;
65613;SDS011;52283;49.292;10.572;2023-01-24T14:53:25;14.13;;;9.52;;
65613;SDS011;52283;49.292;10.572;2023-01-24T14:55:53;17.15;;;8.70;;
65613;SDS011;52283;49.292;10.572;2023-01-24T14:58:23;19.13;;;9.40;;